sensor_id;sensor_type;location;lat;lon;timestamp;pressure;altitude;pressure_sealevel;temperature;humidity
53908;BME280;40469;47.998;7.794;2023-03-21T00:02:03;99232.19;;;6.88;100.00
53908;BME280;40469;47.998;7.794;2023-03-21T00:04:28;99228.78;;;6.92;100.00
53908;BME280;40469;47.998;7.794;2023-03-21T00:06:54;99229.63;;;6.91;100.00
53908;BME280;40469;47.998;7.794;2023-03-21T00:09:19;99230.50;;;6.93;100.00
53908;BME280;40469;47.998;7.794;2023-03-21T00:11:45;99233.13;;;6.95;100.00
53908;BME280;40469;47.998;7.794;2023-03-21T00:14:10;99234.00;;;6.95;100.00
53908;BME280;40469;47.998;7.794;2023-03-21T00:16:38;99239.13;;;6.89;100.00
53908;BME280;40469;47.998;7.794;2023-03-21T00:19:03;99232.03;;;6.71;100.00
53908;BME280;40469;47.998;7.794;2023-03-21T00:21:30;99228.50;;;6.63;100.00
53908;BME280;40469;47.998;7.794;2023-03-21T00:23:58;99227.63;;;6.61;100.00
53908;BME280;40469;47.998;7.794;2023-03-21T00:26:23;99229.38;;;6.62;100.00
53908;BME280;40469;47.998;7.794;2023-03-21T00:28:49;99231.84;;;6.53;100.00
53908;BME280;40469;47.998;7.794;2023-03-21T00:31:14;99234.47;;;6.56;100.00
53908;BME280;40469;47.998;7.794;2023-03-21T00:33:40;99230.94;;;6.49;100.00
53908;BME280;40469;47.998;7.794;2023-03-21T00:36:06;99218.03;;;6.54;100.00
53908;BME280;40469;47.998;7.794;2023-03-21T00:38:31;99230.06;;;6.47;100.00
53908;BME280;40469;47.998;7.794;2023-03-21T00:40:56;99228.19;;;6.37;100.00
53908;BME280;40469;47.998;7.794;2023-03-21T00:43:22;99219.50;;;6.29;100.00
53908;BME280;40469;47.998;7.794;2023-03-21T00:45:53;99221.19;;;6.26;100.00
53908;BME280;40469;47.998;7.794;2023-03-21T00:48:19;99219.44;;;6.25;100.00
53908;BME280;40469;47.998;7.794;2023-03-21T00:50:45;99217.69;;;6.24;100.00
53908;BME280;40469;47.998;7.794;2023-03-21T00:53:11;99220.38;;;6.31;100.00
53908;BME280;40469;47.998;7.794;2023-03-21T00:55:36;99209.97;;;6.28;100.00
53908;BME280;40469;47.998;7.794;2023-03-21T00:58:02;99203.91;;;6.27;100.00
53908;BME280;40469;47.998;7.794;2023-03-21T01:00:28;99211.66;;;6.25;100.00
53908;BME280;40469;47.998;7.794;2023-03-21T01:02:53;99203.00;;;6.23;100.00
53908;BME280;40469;47.998;7.794;2023-03-21T01:05:25;99211.59;;;6.21;100.00
53908;BME280;40469;47.998;7.794;2023-03-21T01:08:13;99207.25;;;6.18;100.00
53908;BME280;40469;47.998;7.794;2023-03-21T01:10:40;99207.22;;;6.15;100.00
53908;BME280;40469;47.998;7.794;2023-03-21T01:13:05;99201.09;;;6.10;100.00
53908;BME280;40469;47.998;7.794;2023-03-21T01:15:31;99201.09;;;6.08;100.00
53908;BME280;40469;47.998;7.794;2023-03-21T01:17:56;99201.94;;;6.06;100.00
53908;BME280;40469;47.998;7.794;2023-03-21T01:20:21;99202.72;;;6.00;100.00
53908;BME280;40469;47.998;7.794;2023-03-21T01:22:46;99191.38;;;5.94;100.00
53908;BME280;40469;47.998;7.794;2023-03-21T01:25:12;99195.63;;;5.88;100.00
53908;BME280;40469;47.998;7.794;2023-03-21T01:27:37;99186.13;;;5.86;100.00
53908;BME280;40469;47.998;7.794;2023-03-21T01:30:03;99193.94;;;5.91;100.00
53908;BME280;40469;47.998;7.794;2023-03-21T01:32:28;99191.47;;;5.97;100.00
53908;BME280;40469;47.998;7.794;2023-03-21T01:34:54;99193.94;;;5.91;100.00
53908;BME280;40469;47.998;7.794;2023-03-21T01:37:19;99187.81;;;5.85;100.00
53908;BME280;40469;47.998;7.794;2023-03-21T01:39:44;99185.19;;;5.81;100.00
53908;BME280;40469;47.998;7.794;2023-03-21T01:42:12;99189.44;;;5.79;100.00
53908;BME280;40469;47.998;7.794;2023-03-21T01:44:57;99185.13;;;5.78;100.00
53908;BME280;40469;47.998;7.794;2023-03-21T01:47:23;99185.16;;;5.79;100.00
53908;BME280;40469;47.998;7.794;2023-03-21T01:49:49;99179.06;;;5.76;100.00
53908;BME280;40469;47.998;7.794;2023-03-21T01:52:17;99174.78;;;5.78;100.00
53908;BME280;40469;47.998;7.794;2023-03-21T01:54:43;99168.72;;;5.76;100.00
53908;BME280;40469;47.998;7.794;2023-03-21T01:57:11;99168.72;;;5.79;100.00
53908;BME280;40469;47.998;7.794;2023-03-21T01:59:50;99164.41;;;5.78;100.00
53908;BME280;40469;47.998;7.794;2023-03-21T02:02:19;99166.22;;;5.85;100.00
53908;BME280;40469;47.998;7.794;2023-03-21T02:04:47;99168.88;;;5.89;100.00
53908;BME280;40469;47.998;7.794;2023-03-21T02:07:15;99174.06;;;5.91;100.00
53908;BME280;40469;47.998;7.794;2023-03-21T02:09:43;99167.97;;;5.87;100.00
53908;BME280;40469;47.998;7.794;2023-03-21T02:12:10;99164.50;;;5.85;100.00
53908;BME280;40469;47.998;7.794;2023-03-21T02:14:36;99162.78;;;5.84;100.00
53908;BME280;40469;47.998;7.794;2023-03-21T02:27:23;99161.88;;;5.82;100.00
53908;BME280;40469;47.998;7.794;2023-03-21T02:37:45;99156.69;;;5.81;100.00
53908;BME280;40469;47.998;7.794;2023-03-21T02:40:22;99162.69;;;5.78;100.00
53908;BME280;40469;47.998;7.794;2023-03-21T02:45:27;99147.06;;;5.72;100.00
53908;BME280;40469;47.998;7.794;2023-03-21T02:47:55;99144.50;;;5.75;100.00
53908;BME280;40469;47.998;7.794;2023-03-21T02:52:48;99144.50;;;5.74;100.00
53908;BME280;40469;47.998;7.794;2023-03-21T02:55:15;99141.78;;;5.66;100.00
53908;BME280;40469;47.998;7.794;2023-03-21T02:57:43;99142.63;;;5.63;100.00
53908;BME280;40469;47.998;7.794;2023-03-21T03:00:10;99145.16;;;5.59;100.00
53908;BME280;40469;47.998;7.794;2023-03-21T03:02:37;99139.97;;;5.59;100.00
53908;BME280;40469;47.998;7.794;2023-03-21T03:05:10;99127.06;;;5.60;100.00
53908;BME280;40469;47.998;7.794;2023-03-21T03:07:39;99125.31;;;5.58;100.00
53908;BME280;40469;47.998;7.794;2023-03-21T03:15:35;99126.22;;;5.64;100.00
53908;BME280;40469;47.998;7.794;2023-03-21T03:18:11;99127.91;;;5.58;100.00
53908;BME280;40469;47.998;7.794;2023-03-21T03:20:52;99122.66;;;5.53;100.00
53908;BME280;40469;47.998;7.794;2023-03-21T03:26:04;99119.19;;;5.53;100.00
53908;BME280;40469;47.998;7.794;2023-03-21T03:28:34;99127.00;;;5.54;100.00
53908;BME280;40469;47.998;7.794;2023-03-21T03:31:01;99118.28;;;5.50;100.00
53908;BME280;40469;47.998;7.794;2023-03-21T03:33:27;99121.78;;;5.53;100.00
53908;BME280;40469;47.998;7.794;2023-03-21T03:35:53;99121.81;;;5.54;100.00
53908;BME280;40469;47.998;7.794;2023-03-21T03:38:20;99116.66;;;5.57;100.00
53908;BME280;40469;47.998;7.794;2023-03-21T03:40:54;99120.97;;;5.57;100.00
53908;BME280;40469;47.998;7.794;2023-03-21T03:43:25;99127.00;;;5.57;100.00
53908;BME280;40469;47.998;7.794;2023-03-21T03:45:55;99129.59;;;5.54;100.00
53908;BME280;40469;47.998;7.794;2023-03-21T03:48:27;99126.13;;;5.55;100.00
53908;BME280;40469;47.998;7.794;2023-03-21T03:50:55;99126.16;;;5.58;100.00
53908;BME280;40469;47.998;7.794;2023-03-21T03:55:56;99120.06;;;5.53;100.00
53908;BME280;40469;47.998;7.794;2023-03-21T03:58:23;99122.59;;;5.50;100.00
53908;BME280;40469;47.998;7.794;2023-03-21T04:00:49;99122.66;;;5.53;100.00
53908;BME280;40469;47.998;7.794;2023-03-21T04:03:14;99122.66;;;5.53;100.00
53908;BME280;40469;47.998;7.794;2023-03-21T04:05:40;99123.47;;;5.50;100.00
53908;BME280;40469;47.998;7.794;2023-03-21T04:08:06;99124.38;;;5.53;100.00
53908;BME280;40469;47.998;7.794;2023-03-21T04:10:31;99121.81;;;5.56;100.00
53908;BME280;40469;47.998;7.794;2023-03-21T04:12:56;99122.72;;;5.61;100.00
53908;BME280;40469;47.998;7.794;2023-03-21T04:15:22;99127.03;;;5.59;100.00
53908;BME280;40469;47.998;7.794;2023-03-21T04:17:47;99126.16;;;5.57;100.00
53908;BME280;40469;47.998;7.794;2023-03-21T04:20:12;99123.47;;;5.52;100.00
53908;BME280;40469;47.998;7.794;2023-03-21T04:22:37;99120.06;;;5.53;100.00
53908;BME280;40469;47.998;7.794;2023-03-21T04:25:03;99122.66;;;5.53;100.00
53908;BME280;40469;47.998;7.794;2023-03-21T04:27:29;99125.22;;;5.51;100.00
53908;BME280;40469;47.998;7.794;2023-03-21T04:29:55;99120.91;;;5.54;100.00
53908;BME280;40469;47.998;7.794;2023-03-21T04:32:20;99123.47;;;5.52;100.00
53908;BME280;40469;47.998;7.794;2023-03-21T04:34:48;99120.88;;;5.50;100.00
53908;BME280;40469;47.998;7.794;2023-03-21T04:37:17;99117.38;;;5.45;100.00
53908;BME280;40469;47.998;7.794;2023-03-21T04:39:43;99119.00;;;5.39;100.00
53908;BME280;40469;47.998;7.794;2023-03-21T04:42:10;99120.72;;;5.38;100.00
53908;BME280;40469;47.998;7.794;2023-03-21T04:44:35;99124.88;;;5.27;100.00
53908;BME280;40469;47.998;7.794;2023-03-21T04:47:00;99120.56;;;5.26;100.00
53908;BME280;40469;47.998;7.794;2023-03-21T04:49:26;99129.13;;;5.22;100.00
53908;BME280;40469;47.998;7.794;2023-03-21T04:51:51;99116.97;;;5.16;100.00
53908;BME280;40469;47.998;7.794;2023-03-21T04:54:17;99126.56;;;5.23;100.00
53908;BME280;40469;47.998;7.794;2023-03-21T04:56:42;99118.78;;;5.23;100.00
53908;BME280;40469;47.998;7.794;2023-03-21T04:59:09;99123.94;;;5.22;100.00
53908;BME280;40469;47.998;7.794;2023-03-21T05:01:35;99121.22;;;5.12;100.00
53908;BME280;40469;47.998;7.794;2023-03-21T05:04:01;99120.25;;;5.04;100.00
53908;BME280;40469;47.998;7.794;2023-03-21T05:06:26;99123.50;;;4.91;100.00
53908;BME280;40469;47.998;7.794;2023-03-21T05:08:52;99118.31;;;4.89;100.00
53908;BME280;40469;47.998;7.794;2023-03-21T05:11:17;99124.41;;;4.94;100.00
53908;BME280;40469;47.998;7.794;2023-03-21T05:13:43;99119.13;;;4.88;100.00
53908;BME280;40469;47.998;7.794;2023-03-21T05:16:08;99124.25;;;4.84;100.00
53908;BME280;40469;47.998;7.794;2023-03-21T05:18:34;99119.00;;;4.79;100.00
53908;BME280;40469;47.998;7.794;2023-03-21T05:21:02;99120.66;;;4.75;100.00
53908;BME280;40469;47.998;7.794;2023-03-21T05:23:28;99123.22;;;4.74;100.00
53908;BME280;40469;47.998;7.794;2023-03-21T05:25:55;99117.97;;;4.68;100.00
53908;BME280;40469;47.998;7.794;2023-03-21T05:28:20;99117.94;;;4.66;100.00
53908;BME280;40469;47.998;7.794;2023-03-21T05:30:46;99116.25;;;4.68;100.00
53908;BME280;40469;47.998;7.794;2023-03-21T05:33:11;99117.06;;;4.64;100.00
53908;BME280;40469;47.998;7.794;2023-03-21T05:35:37;99112.78;;;4.68;100.00
53908;BME280;40469;47.998;7.794;2023-03-21T05:38:02;99118.03;;;4.72;100.00
53908;BME280;40469;47.998;7.794;2023-03-21T05:40:27;99111.97;;;4.70;100.00
53908;BME280;40469;47.998;7.794;2023-03-21T05:42:53;99116.34;;;4.73;100.00
53908;BME280;40469;47.998;7.794;2023-03-21T05:45:18;99112.75;;;4.65;100.00
53908;BME280;40469;47.998;7.794;2023-03-21T05:47:43;99115.34;;;4.66;100.00
53908;BME280;40469;47.998;7.794;2023-03-21T05:50:09;99116.28;;;4.70;100.00
53908;BME280;40469;47.998;7.794;2023-03-21T05:52:35;99112.94;;;4.77;100.00
53908;BME280;40469;47.998;7.794;2023-03-21T05:55:00;99108.63;;;4.78;100.00
53908;BME280;40469;47.998;7.794;2023-03-21T05:57:26;99109.59;;;4.84;100.00
53908;BME280;40469;47.998;7.794;2023-03-21T05:59:52;99107.09;;;4.90;100.00
53908;BME280;40469;47.998;7.794;2023-03-21T06:02:18;99117.53;;;4.95;100.00
53908;BME280;40469;47.998;7.794;2023-03-21T06:04:43;99106.41;;;5.02;100.00
53908;BME280;40469;47.998;7.794;2023-03-21T06:07:09;99115.94;;;5.06;100.00
53908;BME280;40469;47.998;7.794;2023-03-21T06:09:34;99110.03;;;5.13;100.00
53908;BME280;40469;47.998;7.794;2023-03-21T06:11:59;99111.09;;;5.28;100.00
53908;BME280;40469;47.998;7.794;2023-03-21T06:14:25;99105.94;;;5.31;100.00
53908;BME280;40469;47.998;7.794;2023-03-21T06:16:50;99106.91;;;5.38;100.00
53908;BME280;40469;47.998;7.794;2023-03-21T06:19:17;99107.78;;;5.40;100.00
53908;BME280;40469;47.998;7.794;2023-03-21T06:21:43;99107.03;;;5.45;100.00
53908;BME280;40469;47.998;7.794;2023-03-21T06:24:08;99103.69;;;5.54;100.00
53908;BME280;40469;47.998;7.794;2023-03-21T06:26:34;99096.84;;;5.62;100.00
53908;BME280;40469;47.998;7.794;2023-03-21T06:28:59;99102.09;;;5.67;100.00
53908;BME280;40469;47.998;7.794;2023-03-21T06:31:24;99095.28;;;5.77;100.00
53908;BME280;40469;47.998;7.794;2023-03-21T06:33:51;99100.59;;;5.84;100.00
53908;BME280;40469;47.998;7.794;2023-03-21T06:36:16;99093.72;;;5.91;100.00
53908;BME280;40469;47.998;7.794;2023-03-21T06:38:42;99103.34;;;5.97;100.00
53908;BME280;40469;47.998;7.794;2023-03-21T06:41:08;99103.34;;;6.00;100.00
53908;BME280;40469;47.998;7.794;2023-03-21T06:43:33;99100.81;;;6.04;100.00
53908;BME280;40469;47.998;7.794;2023-03-21T06:45:59;99094.81;;;6.05;100.00
53908;BME280;40469;47.998;7.794;2023-03-21T06:48:24;99093.09;;;6.09;100.00
53908;BME280;40469;47.998;7.794;2023-03-21T06:50:50;99095.75;;;6.17;100.00
53908;BME280;40469;47.998;7.794;2023-03-21T06:53:15;99092.44;;;6.30;100.00
53908;BME280;40469;47.998;7.794;2023-03-21T06:55:41;99090.84;;;6.43;100.00
53908;BME280;40469;47.998;7.794;2023-03-21T06:58:06;99087.44;;;6.52;100.00
53908;BME280;40469;47.998;7.794;2023-03-21T07:00:31;99087.53;;;6.61;100.00
53908;BME280;40469;47.998;7.794;2023-03-21T07:02:57;99095.31;;;6.62;100.00
53908;BME280;40469;47.998;7.794;2023-03-21T07:05:22;99093.63;;;6.68;100.00
53908;BME280;40469;47.998;7.794;2023-03-21T07:07:48;99089.38;;;6.77;100.00
53908;BME280;40469;47.998;7.794;2023-03-21T07:10:13;99085.97;;;6.81;100.00
53908;BME280;40469;47.998;7.794;2023-03-21T07:12:38;99090.25;;;6.78;100.00
53908;BME280;40469;47.998;7.794;2023-03-21T07:15:04;99089.41;;;6.80;100.00
53908;BME280;40469;47.998;7.794;2023-03-21T07:17:30;99088.63;;;6.92;100.00
53908;BME280;40469;47.998;7.794;2023-03-21T07:19:56;99089.53;;;6.99;100.00
53908;BME280;40469;47.998;7.794;2023-03-21T07:22:21;99088.69;;;7.01;100.00
53908;BME280;40469;47.998;7.794;2023-03-21T07:24:46;99090.41;;;7.04;100.00
53908;BME280;40469;47.998;7.794;2023-03-21T07:27:12;99084.44;;;7.16;100.00
53908;BME280;40469;47.998;7.794;2023-03-21T07:29:38;99079.25;;;7.16;100.00
53908;BME280;40469;47.998;7.794;2023-03-21T07:32:03;99085.31;;;7.19;100.00
53908;BME280;40469;47.998;7.794;2023-03-21T07:34:28;99083.66;;;7.32;100.00
53908;BME280;40469;47.998;7.794;2023-03-21T07:36:57;99085.47;;;7.47;100.00
53908;BME280;40469;47.998;7.794;2023-03-21T07:39:22;99082.09;;;7.67;100.00
53908;BME280;40469;47.998;7.794;2023-03-21T07:41:47;99080.38;;;7.70;100.00
53908;BME280;40469;47.998;7.794;2023-03-21T07:44:12;99078.66;;;7.77;100.00
53908;BME280;40469;47.998;7.794;2023-03-21T07:46:38;99089.09;;;7.88;100.00
53908;BME280;40469;47.998;7.794;2023-03-21T07:49:03;99093.44;;;7.96;100.00
53908;BME280;40469;47.998;7.794;2023-03-21T07:51:30;99087.41;;;8.05;100.00
53908;BME280;40469;47.998;7.794;2023-03-21T07:53:55;99080.47;;;8.09;100.00
53908;BME280;40469;47.998;7.794;2023-03-21T07:56:20;99085.69;;;8.10;100.00
53908;BME280;40469;47.998;7.794;2023-03-21T07:58:45;99083.94;;;8.20;100.00
53908;BME280;40469;47.998;7.794;2023-03-21T08:01:11;99086.56;;;8.25;100.00
53908;BME280;40469;47.998;7.794;2023-03-21T08:03:36;99085.72;;;8.35;100.00
53908;BME280;40469;47.998;7.794;2023-03-21T08:06:01;99090.97;;;8.52;100.00
53908;BME280;40469;47.998;7.794;2023-03-21T08:08:27;99086.63;;;8.48;100.00
53908;BME280;40469;47.998;7.794;2023-03-21T08:10:52;99091.81;;;8.39;100.00
53908;BME280;40469;47.998;7.794;2023-03-21T08:13:17;99094.41;;;8.37;100.00
53908;BME280;40469;47.998;7.794;2023-03-21T08:15:43;99095.31;;;8.50;100.00
53908;BME280;40469;47.998;7.794;2023-03-21T08:18:08;99098.78;;;8.44;100.00
53908;BME280;40469;47.998;7.794;2023-03-21T08:20:34;99101.38;;;8.52;100.00
53908;BME280;40469;47.998;7.794;2023-03-21T08:22:59;99100.50;;;8.54;100.00
53908;BME280;40469;47.998;7.794;2023-03-21T08:25:25;99092.72;;;8.68;100.00
53908;BME280;40469;47.998;7.794;2023-03-21T08:27:50;99094.44;;;8.77;100.00
53908;BME280;40469;47.998;7.794;2023-03-21T08:30:20;99097.06;;;8.74;100.00
53908;BME280;40469;47.998;7.794;2023-03-21T08:32:46;99095.28;;;8.85;100.00
53908;BME280;40469;47.998;7.794;2023-03-21T08:35:12;99087.47;;;8.95;100.00
53908;BME280;40469;47.998;7.794;2023-03-21T08:37:38;99096.16;;;9.07;100.00
53908;BME280;40469;47.998;7.794;2023-03-21T08:40:04;99101.34;;;9.12;100.00
53908;BME280;40469;47.998;7.794;2023-03-21T08:42:32;99097.00;;;9.25;100.00
53908;BME280;40469;47.998;7.794;2023-03-21T08:44:57;99097.81;;;9.36;100.00
53908;BME280;40469;47.998;7.794;2023-03-21T08:47:23;99098.66;;;9.35;100.00
53908;BME280;40469;47.998;7.794;2023-03-21T08:49:48;99100.41;;;9.41;100.00
53908;BME280;40469;47.998;7.794;2023-03-21T08:52:13;99094.34;;;9.34;100.00
53908;BME280;40469;47.998;7.794;2023-03-21T08:54:38;99091.72;;;9.45;100.00
53908;BME280;40469;47.998;7.794;2023-03-21T08:57:05;99091.66;;;9.60;100.00
53908;BME280;40469;47.998;7.794;2023-03-21T08:59:32;99089.81;;;9.79;100.00
53908;BME280;40469;47.998;7.794;2023-03-21T09:01:57;99089.81;;;9.84;100.00
53908;BME280;40469;47.998;7.794;2023-03-21T09:04:23;99093.16;;;10.07;100.00
53908;BME280;40469;47.998;7.794;2023-03-21T09:06:49;99085.22;;;10.31;100.00
53908;BME280;40469;47.998;7.794;2023-03-21T09:09:16;99090.22;;;10.63;100.00
53908;BME280;40469;47.998;7.794;2023-03-21T09:11:41;99087.78;;;10.41;100.00
53908;BME280;40469;47.998;7.794;2023-03-21T09:14:07;99080.69;;;10.56;100.00
53908;BME280;40469;47.998;7.794;2023-03-21T09:16:34;99087.59;;;10.63;100.00
53908;BME280;40469;47.998;7.794;2023-03-21T09:18:59;99081.25;;;10.93;100.00
53908;BME280;40469;47.998;7.794;2023-03-21T09:21:25;99078.81;;;10.73;100.00
53908;BME280;40469;47.998;7.794;2023-03-21T09:23:51;99078.75;;;10.81;100.00
53908;BME280;40469;47.998;7.794;2023-03-21T09:26:19;99075.78;;;11.15;100.00
53908;BME280;40469;47.998;7.794;2023-03-21T09:28:44;99069.31;;;11.51;100.00
53908;BME280;40469;47.998;7.794;2023-03-21T09:31:13;99069.47;;;11.34;100.00
53908;BME280;40469;47.998;7.794;2023-03-21T09:33:40;99066.88;;;11.34;100.00
53908;BME280;40469;47.998;7.794;2023-03-21T09:36:06;99071.13;;;11.42;100.00
53908;BME280;40469;47.998;7.794;2023-03-21T09:38:36;99068.16;;;11.74;100.00
53908;BME280;40469;47.998;7.794;2023-03-21T09:43:41;99062.19;;;12.26;100.00
53908;BME280;40469;47.998;7.794;2023-03-21T09:46:13;99057.50;;;12.50;100.00
53908;BME280;40469;47.998;7.794;2023-03-21T09:48:44;99061.56;;;12.68;100.00
53908;BME280;40469;47.998;7.794;2023-03-21T09:51:13;99052.88;;;12.66;100.00
53908;BME280;40469;47.998;7.794;2023-03-21T09:53:40;99057.25;;;12.65;100.00
53908;BME280;40469;47.998;7.794;2023-03-21T09:56:07;99057.28;;;12.64;100.00
53908;BME280;40469;47.998;7.794;2023-03-21T09:58:37;99059.28;;;12.99;100.00
53908;BME280;40469;47.998;7.794;2023-03-21T10:01:08;99055.22;;;13.30;100.00
53908;BME280;40469;47.998;7.794;2023-03-21T10:03:40;99058.03;;;13.19;100.00
53908;BME280;40469;47.998;7.794;2023-03-21T10:06:11;99057.44;;;13.04;100.00
53908;BME280;40469;47.998;7.794;2023-03-21T10:08:39;99059.94;;;13.09;100.00
53908;BME280;40469;47.998;7.794;2023-03-21T10:11:09;99065.81;;;13.23;100.00
53908;BME280;40469;47.998;7.794;2023-03-21T10:13:38;99064.72;;;13.37;100.00
53908;BME280;40469;47.998;7.794;2023-03-21T10:16:15;99054.94;;;13.45;100.00
53908;BME280;40469;47.998;7.794;2023-03-21T10:18:41;99058.53;;;13.39;100.00
53908;BME280;40469;47.998;7.794;2023-03-21T10:21:06;99052.78;;;13.64;100.00
53908;BME280;40469;47.998;7.794;2023-03-21T10:23:35;99045.84;;;14.02;100.00
53908;BME280;40469;47.998;7.794;2023-03-21T10:26:01;99045.47;;;14.56;100.00
53908;BME280;40469;47.998;7.794;2023-03-21T10:28:30;99036.91;;;14.84;100.00
53908;BME280;40469;47.998;7.794;2023-03-21T10:31:04;99032.34;;;14.91;100.00
53908;BME280;40469;47.998;7.794;2023-03-21T10:33:32;99035.16;;;14.85;100.00
53908;BME280;40469;47.998;7.794;2023-03-21T10:36:00;99034.34;;;15.14;100.00
53908;BME280;40469;47.998;7.794;2023-03-21T10:38:26;99029.53;;;14.98;100.00
53908;BME280;40469;47.998;7.794;2023-03-21T10:40:52;99023.16;;;15.07;100.00
53908;BME280;40469;47.998;7.794;2023-03-21T10:45:52;99021.75;;;15.27;100.00
53908;BME280;40469;47.998;7.794;2023-03-21T10:48:17;99018.66;;;15.72;100.00
53908;BME280;40469;47.998;7.794;2023-03-21T10:50:43;99015.38;;;15.65;100.00
53908;BME280;40469;47.998;7.794;2023-03-21T10:53:18;99007.41;;;16.25;100.00
53908;BME280;40469;47.998;7.794;2023-03-21T10:55:45;99005.09;;;16.42;100.00
53908;BME280;40469;47.998;7.794;2023-03-21T10:58:15;99003.41;;;16.66;100.00
53908;BME280;40469;47.998;7.794;2023-03-21T11:00:49;99000.75;;;17.18;100.00
53908;BME280;40469;47.998;7.794;2023-03-21T11:03:29;98992.28;;;17.34;100.00
53908;BME280;40469;47.998;7.794;2023-03-21T11:05:55;98989.50;;;17.13;100.00
53908;BME280;40469;47.998;7.794;2023-03-21T11:08:21;98987.94;;;16.82;100.00
53908;BME280;40469;47.998;7.794;2023-03-21T11:10:49;98989.81;;;16.54;100.00
53908;BME280;40469;47.998;7.794;2023-03-21T11:13:22;98983.06;;;16.97;100.00
53908;BME280;40469;47.998;7.794;2023-03-21T11:15:58;98981.59;;;17.13;100.00
53908;BME280;40469;47.998;7.794;2023-03-21T11:18:29;98980.22;;;16.24;100.00
53908;BME280;40469;47.998;7.794;2023-03-21T11:20:57;98976.09;;;16.42;100.00
53908;BME280;40469;47.998;7.794;2023-03-21T11:23:27;98980.66;;;15.82;100.00
53908;BME280;40469;47.998;7.794;2023-03-21T11:25:53;98977.31;;;16.05;100.00
53908;BME280;40469;47.998;7.794;2023-03-21T11:28:20;98981.69;;;15.78;100.00
53908;BME280;40469;47.998;7.794;2023-03-21T11:30:50;98974.50;;;15.83;100.00
53908;BME280;40469;47.998;7.794;2023-03-21T11:33:17;98966.81;;;15.76;100.00
53908;BME280;40469;47.998;7.794;2023-03-21T11:35:43;98957.31;;;16.26;100.00
53908;BME280;40469;47.998;7.794;2023-03-21T11:38:25;98957.34;;;15.98;100.00
53908;BME280;40469;47.998;7.794;2023-03-21T11:40:52;98951.31;;;16.48;100.00
53908;BME280;40469;47.998;7.794;2023-03-21T11:46:01;98943.97;;;16.58;100.00
53908;BME280;40469;47.998;7.794;2023-03-21T11:48:29;98945.13;;;16.74;100.00
53908;BME280;40469;47.998;7.794;2023-03-21T11:50:57;98946.31;;;16.14;100.00
53908;BME280;40469;47.998;7.794;2023-03-21T11:58:35;98945.75;;;15.46;100.00
53908;BME280;40469;47.998;7.794;2023-03-21T12:01:06;98934.22;;;15.51;100.00
53908;BME280;40469;47.998;7.794;2023-03-21T12:09:21;98923.84;;;15.15;100.00
53908;BME280;40469;47.998;7.794;2023-03-21T12:12:12;98931.22;;;15.04;100.00
53908;BME280;40469;47.998;7.794;2023-03-21T12:14:54;98921.63;;;15.31;100.00
53908;BME280;40469;47.998;7.794;2023-03-21T12:20:01;98917.81;;;15.42;100.00
53908;BME280;40469;47.998;7.794;2023-03-21T12:22:48;98914.69;;;14.99;100.00
53908;BME280;40469;47.998;7.794;2023-03-21T12:25:20;98916.06;;;15.12;100.00
53908;BME280;40469;47.998;7.794;2023-03-21T12:27:57;98901.19;;;15.41;100.00
53908;BME280;40469;47.998;7.794;2023-03-21T12:38:25;98891.38;;;16.03;100.00
53908;BME280;40469;47.998;7.794;2023-03-21T12:41:01;98891.41;;;16.01;100.00
53908;BME280;40469;47.998;7.794;2023-03-21T12:46:00;98880.38;;;16.17;100.00
53908;BME280;40469;47.998;7.794;2023-03-21T12:51:01;98880.44;;;16.15;100.00
53908;BME280;40469;47.998;7.794;2023-03-21T12:55:54;98880.88;;;16.01;100.00
53908;BME280;40469;47.998;7.794;2023-03-21T12:58:21;98872.53;;;16.40;100.00
53908;BME280;40469;47.998;7.794;2023-03-21T13:00:57;98866.47;;;16.38;100.00
53908;BME280;40469;47.998;7.794;2023-03-21T13:05:56;98867.97;;;16.45;97.02
53908;BME280;40469;47.998;7.794;2023-03-21T13:10:48;98861.50;;;16.54;99.49
53908;BME280;40469;47.998;7.794;2023-03-21T13:21:47;98852.69;;;16.05;94.41
53908;BME280;40469;47.998;7.794;2023-03-21T13:26:49;98852.09;;;16.22;95.12
53908;BME280;40469;47.998;7.794;2023-03-21T13:29:24;98840.31;;;16.32;93.32
53908;BME280;40469;47.998;7.794;2023-03-21T13:31:51;98834.66;;;16.18;95.00
53908;BME280;40469;47.998;7.794;2023-03-21T13:34:18;98838.44;;;16.10;93.86
53908;BME280;40469;47.998;7.794;2023-03-21T13:36:45;98834.19;;;16.32;94.97
53908;BME280;40469;47.998;7.794;2023-03-21T13:39:15;98830.09;;;16.48;93.59
53908;BME280;40469;47.998;7.794;2023-03-21T13:41:42;98834.00;;;16.11;98.55
53908;BME280;40469;47.998;7.794;2023-03-21T13:44:15;98846.28;;;16.37;97.99
53908;BME280;40469;47.998;7.794;2023-03-21T13:46:43;98829.53;;;16.63;94.59
53908;BME280;40469;47.998;7.794;2023-03-21T13:59:09;98832.78;;;17.19;90.55
53908;BME280;40469;47.998;7.794;2023-03-21T14:01:35;98839.53;;;17.26;98.29
53908;BME280;40469;47.998;7.794;2023-03-21T14:06:42;98838.00;;;16.97;96.90
53908;BME280;40469;47.998;7.794;2023-03-21T14:09:10;98831.72;;;17.23;94.77
53908;BME280;40469;47.998;7.794;2023-03-21T14:11:41;98830.53;;;16.84;96.89
53908;BME280;40469;47.998;7.794;2023-03-21T14:14:07;98826.03;;;16.88;98.66
53908;BME280;40469;47.998;7.794;2023-03-21T14:16:33;98827.28;;;16.53;99.46
53908;BME280;40469;47.998;7.794;2023-03-21T14:19:00;98824.75;;;16.49;100.00
53908;BME280;40469;47.998;7.794;2023-03-21T14:21:28;98814.81;;;16.58;100.00
53908;BME280;40469;47.998;7.794;2023-03-21T14:24:04;98813.66;;;16.65;100.00
53908;BME280;40469;47.998;7.794;2023-03-21T14:26:31;98814.50;;;16.42;100.00
53908;BME280;40469;47.998;7.794;2023-03-21T14:28:57;98811.22;;;16.35;100.00
53908;BME280;40469;47.998;7.794;2023-03-21T14:31:22;98810.53;;;16.30;100.00
53908;BME280;40469;47.998;7.794;2023-03-21T14:33:51;98805.63;;;16.44;100.00
53908;BME280;40469;47.998;7.794;2023-03-21T14:36:28;98807.88;;;16.30;100.00
53908;BME280;40469;47.998;7.794;2023-03-21T14:38:55;98812.66;;;16.44;100.00